createdAt,value
2018-11-02T00:00:10.029Z,8.89
2018-11-02T00:01:10.174Z,8.87
2018-11-02T00:02:10.603Z,8.91
2018-11-02T00:03:10.197Z,8.88
2018-11-02T00:04:09.944Z,8.88
2018-11-02T00:05:09.877Z,8.88
2018-11-02T00:06:10.192Z,8.88
2018-11-02T00:07:10.300Z,8.89
2018-11-02T00:08:09.795Z,8.88
2018-11-02T00:09:09.998Z,8.88
2018-11-02T00:10:10.137Z,8.89
2018-11-02T00:11:09.854Z,8.92
2018-11-02T00:12:10.839Z,8.89
2018-11-02T00:13:10.176Z,8.88
2018-11-02T00:14:09.924Z,8.76
2018-11-02T00:15:09.820Z,8.87
2018-11-02T00:16:09.831Z,8.85
2018-11-02T00:17:09.812Z,8.82
2018-11-02T00:18:09.541Z,8.74
2018-11-02T00:19:10.061Z,8.71
2018-11-02T00:20:10.052Z,8.71
2018-11-02T00:21:09.785Z,8.69
2018-11-02T00:22:09.524Z,8.64
2018-11-02T00:23:09.799Z,8.7
2018-11-02T00:24:09.508Z,8.76
2018-11-02T00:25:10.053Z,8.7
2018-11-02T00:26:10.050Z,8.67
2018-11-02T00:27:09.737Z,8.66
2018-11-02T00:28:10.081Z,8.69
2018-11-02T00:29:09.489Z,8.71
2018-11-02T00:30:09.725Z,8.67
2018-11-02T00:31:09.470Z,8.67
2018-11-02T00:32:10.579Z,8.63
2018-11-02T00:33:09.461Z,8.66
2018-11-02T00:34:09.708Z,8.67
2018-11-02T00:35:09.701Z,8.67
2018-11-02T00:36:09.446Z,8.66
2018-11-02T00:37:09.700Z,8.7
2018-11-02T00:38:09.940Z,8.69
2018-11-02T00:39:09.701Z,8.63
2018-11-02T00:40:09.662Z,8.61
2018-11-02T00:41:09.654Z,8.64
2018-11-02T00:42:09.918Z,8.73
2018-11-02T00:43:09.957Z,8.71
2018-11-02T00:44:09.932Z,8.66
2018-11-02T00:45:09.648Z,8.87
2018-11-02T00:46:09.896Z,8.87
2018-11-02T00:47:09.363Z,9
2018-11-02T00:48:09.625Z,9.19
2018-11-02T00:49:09.686Z,9.22
2018-11-02T00:50:09.348Z,9.39
2018-11-02T00:51:09.680Z,9.43
2018-11-02T00:52:09.864Z,9.55
2018-11-02T00:53:10.197Z,9.58
2018-11-02T00:54:09.606Z,9.65
2018-11-02T00:55:10.238Z,9.56
2018-11-02T00:56:09.601Z,9.61
2018-11-02T00:57:09.842Z,9.66
2018-11-02T00:58:09.845Z,9.68
2018-11-02T00:59:09.447Z,9.56
2018-11-02T01:00:09.570Z,9.61
2018-11-02T01:01:09.555Z,9.64
2018-11-02T01:02:09.782Z,9.55
2018-11-02T01:03:09.746Z,9.58
2018-11-02T01:04:09.512Z,9.55
2018-11-02T01:05:09.802Z,9.56
2018-11-02T01:06:09.585Z,9.54
2018-11-02T01:07:09.777Z,9.44
2018-11-02T01:08:09.507Z,9.51
2018-11-02T01:09:09.549Z,9.44
2018-11-02T01:10:09.519Z,9.37
2018-11-02T01:11:09.496Z,9.39
2018-11-02T01:12:09.495Z,9.39
2018-11-02T01:13:09.977Z,9.29
2018-11-02T01:14:09.450Z,9.34
2018-11-02T01:15:09.497Z,9.29
2018-11-02T01:16:09.768Z,9.26
2018-11-02T01:17:09.773Z,9.29
2018-11-02T01:18:09.448Z,9.19
2018-11-02T01:19:09.429Z,9.19
2018-11-02T01:20:09.688Z,9.14
2018-11-02T01:21:09.431Z,9.16
2018-11-02T01:22:09.695Z,9.18
2018-11-02T01:23:09.589Z,9.22
2018-11-02T01:24:09.665Z,9.16
2018-11-02T01:25:09.668Z,9.1
2018-11-02T01:26:09.666Z,9.08
2018-11-02T01:27:09.396Z,9.04
2018-11-02T01:28:09.635Z,9.02
2018-11-02T01:29:09.627Z,8.99
2018-11-02T01:30:09.095Z,8.85
2018-11-02T01:31:09.641Z,8.88
2018-11-02T01:32:09.349Z,8.82
2018-11-02T01:33:09.609Z,8.74
2018-11-02T01:34:09.074Z,8.69
2018-11-02T01:35:09.600Z,8.67
2018-11-02T01:36:09.588Z,8.78
2018-11-02T01:37:09.586Z,8.71
2018-11-02T01:38:09.322Z,8.71
2018-11-02T01:39:09.303Z,8.69
2018-11-02T01:40:09.579Z,8.71
2018-11-02T01:41:09.318Z,8.64
2018-11-02T01:42:09.050Z,8.64
2018-11-02T01:43:09.570Z,8.63
2018-11-02T01:44:09.824Z,8.73
2018-11-02T01:45:09.291Z,8.56
2018-11-02T01:46:09.301Z,8.63
2018-11-02T01:47:09.527Z,8.63
2018-11-02T01:48:09.283Z,8.82
2018-11-02T01:49:09.529Z,8.79
2018-11-02T01:50:09.257Z,8.87
2018-11-02T01:51:09.252Z,9.04
2018-11-02T01:52:09.283Z,9.03
2018-11-02T01:53:09.216Z,9.08
2018-11-02T01:54:08.965Z,9.14
2018-11-02T01:55:09.486Z,9.23
2018-11-02T01:56:09.192Z,9.14
2018-11-02T01:57:09.187Z,9.18
2018-11-02T01:58:09.185Z,9.18
2018-11-02T01:59:09.188Z,9.18
2018-11-02T02:00:09.483Z,9.1
2018-11-02T02:01:09.163Z,9.04
2018-11-02T02:02:09.471Z,8.97
2018-11-02T02:03:09.451Z,9.02
2018-11-02T02:04:09.731Z,8.87
2018-11-02T02:05:09.131Z,8.78
2018-11-02T02:06:08.906Z,8.69
2018-11-02T02:07:09.434Z,8.49
2018-11-02T02:08:08.865Z,8.46
2018-11-02T02:09:09.110Z,8.38
2018-11-02T02:10:09.136Z,8.33
2018-11-02T02:11:09.094Z,8.3
2018-11-02T02:12:09.086Z,8.23
2018-11-02T02:13:09.249Z,8.2
2018-11-02T02:14:09.083Z,8.18
2018-11-02T02:15:09.970Z,8.15
2018-11-02T02:16:09.114Z,8.16
2018-11-02T02:17:09.320Z,8.09
2018-11-02T02:18:09.321Z,8.13
2018-11-02T02:19:09.333Z,8.05
2018-11-02T02:20:09.045Z,8.06
2018-11-02T02:21:09.296Z,8.12
2018-11-02T02:22:09.021Z,8.03
2018-11-02T02:23:08.757Z,8.08
2018-11-02T02:24:09.302Z,8.08
2018-11-02T02:25:09.734Z,8.03
2018-11-02T02:26:09.022Z,8.13
2018-11-02T02:27:08.969Z,8.16
2018-11-02T02:28:09.000Z,8.16
2018-11-02T02:29:08.960Z,8.1
2018-11-02T02:30:08.996Z,8.12
2018-11-02T02:31:09.218Z,8.13
2018-11-02T02:32:08.984Z,8.27
2018-11-02T02:33:09.217Z,8.19
2018-11-02T02:34:08.921Z,8.24
2018-11-02T02:35:08.932Z,8.3
2018-11-02T02:36:08.901Z,8.3
2018-11-02T02:37:09.173Z,8.41
2018-11-02T02:38:08.900Z,8.41
2018-11-02T02:39:09.151Z,8.48
2018-11-02T02:40:08.624Z,8.44
2018-11-02T02:41:08.894Z,8.51
2018-11-02T02:42:09.123Z,8.55
2018-11-02T02:43:09.123Z,8.46
2018-11-02T02:44:09.163Z,8.49
2018-11-02T02:45:09.065Z,8.49
2018-11-02T02:46:08.583Z,8.49
2018-11-02T02:47:08.820Z,8.52
2018-11-02T02:48:08.815Z,8.52
2018-11-02T02:49:09.095Z,8.48
2018-11-02T02:50:08.806Z,8.41
2018-11-02T02:51:09.101Z,8.46
2018-11-02T02:52:09.062Z,8.44
2018-11-02T02:53:08.802Z,8.41
2018-11-02T02:54:09.043Z,8.38
2018-11-02T02:55:08.503Z,8.46
2018-11-02T02:56:09.319Z,8.44
2018-11-02T02:57:08.741Z,8.38
2018-11-02T02:58:08.758Z,8.44
2018-11-02T02:59:09.004Z,8.44
2018-11-02T03:00:08.745Z,8.44
2018-11-02T03:01:08.987Z,8.38
2018-11-02T03:02:08.722Z,8.42
2018-11-02T03:03:08.695Z,8.44
2018-11-02T03:04:08.702Z,8.41
2018-11-02T03:05:08.782Z,8.44
2018-11-02T03:06:09.266Z,8.44
2018-11-02T03:07:08.691Z,8.37
2018-11-02T03:08:08.925Z,8.33
2018-11-02T03:09:08.383Z,8.41
2018-11-02T03:10:08.666Z,8.3
2018-11-02T03:11:09.102Z,8.3
2018-11-02T03:12:08.919Z,8.26
2018-11-02T03:13:08.643Z,8.2
2018-11-02T03:14:08.646Z,8.24
2018-11-02T03:15:08.870Z,8.15
2018-11-02T03:16:08.339Z,8.18
2018-11-02T03:17:08.358Z,8.16
2018-11-02T03:18:08.630Z,8.18
2018-11-02T03:19:08.851Z,8.05
2018-11-02T03:20:08.622Z,8.1
2018-11-02T03:21:08.306Z,8.01
2018-11-02T03:22:08.576Z,7.95
2018-11-02T03:23:08.552Z,7.91
2018-11-02T03:24:08.839Z,7.87
2018-11-02T03:25:08.803Z,7.77
2018-11-02T03:26:08.337Z,7.72
2018-11-02T03:27:08.648Z,7.76
2018-11-02T03:28:08.805Z,7.66
2018-11-02T03:29:08.781Z,7.57
2018-11-02T03:30:08.800Z,7.54
2018-11-02T03:31:08.563Z,7.45
2018-11-02T03:32:08.249Z,7.53
2018-11-02T03:33:08.533Z,7.51
2018-11-02T03:34:08.747Z,7.51
2018-11-02T03:35:08.809Z,7.5
2018-11-02T03:36:09.014Z,7.38
2018-11-02T03:37:08.742Z,7.43
2018-11-02T03:38:08.723Z,7.35
2018-11-02T03:39:08.512Z,7.31
2018-11-02T03:40:08.434Z,7.29
2018-11-02T03:41:08.425Z,7.28
2018-11-02T03:42:08.422Z,7.29
2018-11-02T03:43:08.159Z,7.24
2018-11-02T03:44:08.431Z,7.18
2018-11-02T03:45:08.672Z,7.23
2018-11-02T03:46:08.676Z,7.23
2018-11-02T03:47:08.139Z,7.2
2018-11-02T03:48:08.412Z,7.21
2018-11-02T03:49:08.372Z,7.11
2018-11-02T03:50:08.795Z,7.14
2018-11-02T03:51:08.681Z,7.18
2018-11-02T03:52:08.704Z,7.13
2018-11-02T03:53:08.358Z,7.1
2018-11-02T03:54:08.327Z,7.18
2018-11-02T03:55:08.626Z,7.2
2018-11-02T03:56:09.181Z,7.17
2018-11-02T03:57:08.054Z,7.11
2018-11-02T03:58:08.075Z,7.07
2018-11-02T03:59:08.325Z,7.05
2018-11-02T04:00:08.577Z,7.06
2018-11-02T04:01:08.564Z,7.1
2018-11-02T04:02:08.301Z,7.1
2018-11-02T04:03:09.068Z,7.1
2018-11-02T04:04:08.006Z,7.06
2018-11-02T04:05:08.260Z,7.1
2018-11-02T04:06:08.777Z,7.1
2018-11-02T04:07:08.580Z,7.03
2018-11-02T04:08:08.273Z,6.99
2018-11-02T04:09:08.240Z,6.92
2018-11-02T04:10:07.961Z,6.93
2018-11-02T04:11:08.218Z,6.89
2018-11-02T04:12:08.231Z,6.82
2018-11-02T04:13:08.225Z,6.89
2018-11-02T04:14:08.478Z,6.72
2018-11-02T04:15:08.462Z,6.85
2018-11-02T04:16:08.181Z,6.75
2018-11-02T04:17:07.920Z,6.81
2018-11-02T04:18:08.165Z,6.88
2018-11-02T04:19:08.411Z,6.81
2018-11-02T04:20:07.885Z,6.77
2018-11-02T04:21:07.912Z,6.77
2018-11-02T04:22:08.133Z,6.85
2018-11-02T04:23:08.392Z,6.74
2018-11-02T04:24:07.898Z,6.85
2018-11-02T04:25:08.113Z,6.79
2018-11-02T04:26:08.109Z,6.88
2018-11-02T04:27:08.427Z,6.87
2018-11-02T04:28:09.165Z,6.82
2018-11-02T04:29:08.104Z,6.92
2018-11-02T04:30:08.088Z,6.93
2018-11-02T04:31:07.889Z,6.87
2018-11-02T04:32:08.378Z,6.97
2018-11-02T04:33:08.048Z,6.99
2018-11-02T04:34:08.340Z,6.99
2018-11-02T04:35:08.309Z,7.1
2018-11-02T04:36:08.318Z,7
2018-11-02T04:37:08.355Z,7.1
2018-11-02T04:38:08.027Z,7.13
2018-11-02T04:39:08.311Z,7.11
2018-11-02T04:40:08.016Z,7.07
2018-11-02T04:41:08.242Z,7.18
2018-11-02T04:42:07.732Z,7.13
2018-11-02T04:43:08.034Z,7.14
2018-11-02T04:44:08.011Z,7.18
2018-11-02T04:45:08.223Z,7.14
2018-11-02T04:46:08.226Z,7.14
2018-11-02T04:47:08.658Z,7.35
2018-11-02T04:48:08.289Z,7.24
2018-11-02T04:49:08.282Z,7.24
2018-11-02T04:50:07.964Z,7.23
2018-11-02T04:51:08.571Z,7.17
2018-11-02T04:52:07.924Z,7.23
2018-11-02T04:53:07.943Z,7.33
2018-11-02T04:54:08.173Z,7.31
2018-11-02T04:55:07.638Z,7.24
2018-11-02T04:56:07.632Z,7.24
2018-11-02T04:57:08.413Z,7.36
2018-11-02T04:58:07.938Z,7.38
2018-11-02T04:59:07.874Z,7.36
2018-11-02T05:00:07.849Z,7.35
2018-11-02T05:01:07.852Z,7.32
2018-11-02T05:02:07.838Z,7.23
2018-11-02T05:03:07.837Z,7.29
2018-11-02T05:04:07.825Z,7.18
2018-11-02T05:05:07.825Z,7.17
2018-11-02T05:06:07.817Z,7.11
2018-11-02T05:07:08.362Z,7.15
2018-11-02T05:08:08.096Z,7.11
2018-11-02T05:09:08.136Z,7.21
2018-11-02T05:10:07.524Z,7.13
2018-11-02T05:11:07.837Z,7.11
2018-11-02T05:12:07.526Z,7.15
2018-11-02T05:13:07.771Z,7.11
2018-11-02T05:14:07.776Z,7.15
2018-11-02T05:15:08.013Z,7.13
2018-11-02T05:16:08.025Z,7.13
2018-11-02T05:17:07.741Z,7.18
2018-11-02T05:18:08.352Z,7.13
2018-11-02T05:19:07.727Z,7.23
2018-11-02T05:20:07.712Z,7.13
2018-11-02T05:21:08.164Z,7.15
2018-11-02T05:22:07.695Z,7.18
2018-11-02T05:23:07.459Z,7.25
2018-11-02T05:24:07.683Z,7.24
2018-11-02T05:25:07.482Z,7.25
2018-11-02T05:26:07.930Z,7.29
2018-11-02T05:27:07.950Z,7.29
2018-11-02T05:28:08.216Z,7.29
2018-11-02T05:29:07.969Z,7.25
2018-11-02T05:30:07.375Z,7.28
2018-11-02T05:31:07.678Z,7.32
2018-11-02T05:32:07.894Z,7.36
2018-11-02T05:33:07.637Z,7.38
2018-11-02T05:34:07.613Z,7.39
2018-11-02T05:35:07.630Z,7.4
2018-11-02T05:36:07.867Z,7.45
2018-11-02T05:37:07.855Z,7.5
2018-11-02T05:38:07.918Z,7.4
2018-11-02T05:39:07.590Z,7.38
2018-11-02T05:40:07.862Z,7.48
2018-11-02T05:41:07.570Z,7.51
2018-11-02T05:42:07.585Z,7.51
2018-11-02T05:43:07.301Z,7.48
2018-11-02T05:44:07.826Z,7.48
2018-11-02T05:45:07.530Z,7.5
2018-11-02T05:46:07.535Z,7.54
2018-11-02T05:47:07.774Z,7.58
2018-11-02T05:48:08.100Z,7.47
2018-11-02T05:49:07.515Z,7.48
2018-11-02T05:50:07.596Z,7.54
2018-11-02T05:51:07.318Z,7.43
2018-11-02T05:52:07.508Z,7.51
2018-11-02T05:53:07.547Z,7.56
2018-11-02T05:54:07.671Z,7.53
2018-11-02T05:55:07.211Z,7.38
2018-11-02T05:56:07.222Z,7.43
2018-11-02T05:57:07.481Z,7.4
2018-11-02T05:58:07.671Z,7.39
2018-11-02T05:59:07.454Z,7.42
2018-11-02T06:00:07.438Z,7.39
2018-11-02T06:01:07.185Z,7.48
2018-11-02T06:02:07.428Z,7.47
2018-11-02T06:03:07.703Z,7.53
2018-11-02T06:04:07.156Z,7.56
2018-11-02T06:05:07.401Z,7.56
2018-11-02T06:06:07.387Z,7.54
2018-11-02T06:07:07.402Z,7.58
2018-11-02T06:08:08.021Z,7.66
2018-11-02T06:09:07.228Z,7.57
2018-11-02T06:10:07.628Z,7.56
2018-11-02T06:11:07.368Z,7.75
2018-11-02T06:12:07.124Z,7.57
2018-11-02T06:13:07.360Z,7.58
2018-11-02T06:14:07.602Z,7.69
2018-11-02T06:15:07.339Z,7.6
2018-11-02T06:16:07.338Z,7.63
2018-11-02T06:17:07.314Z,7.57
2018-11-02T06:18:07.319Z,7.58
2018-11-02T06:19:07.572Z,7.61
2018-11-02T06:20:07.298Z,7.61
2018-11-02T06:21:07.289Z,7.58
2018-11-02T06:22:07.570Z,7.54
2018-11-02T06:23:07.273Z,7.58
2018-11-02T06:24:07.790Z,7.6
2018-11-02T06:25:07.266Z,7.72
2018-11-02T06:26:07.260Z,7.77
2018-11-02T06:27:06.998Z,7.79
2018-11-02T06:28:07.516Z,7.88
2018-11-02T06:29:06.976Z,7.9
2018-11-02T06:30:07.499Z,7.93
2018-11-02T06:31:06.989Z,7.94
2018-11-02T06:32:06.952Z,8.03
2018-11-02T06:33:07.480Z,8.09
2018-11-02T06:34:07.200Z,8.03
2018-11-02T06:35:07.196Z,8.15
2018-11-02T06:36:07.213Z,8.13
2018-11-02T06:37:07.190Z,8.18
2018-11-02T06:38:07.464Z,8.16
2018-11-02T06:39:07.169Z,8.19
2018-11-02T06:40:07.687Z,8.18
2018-11-02T06:41:07.155Z,8.27
2018-11-02T06:42:07.171Z,8.19
2018-11-02T06:43:07.414Z,8.16
2018-11-02T06:44:07.465Z,8.15
2018-11-02T06:45:08.050Z,8.23
2018-11-02T06:46:07.127Z,8.16
2018-11-02T06:47:06.857Z,8.16
2018-11-02T06:48:07.127Z,8.18
2018-11-02T06:49:07.105Z,8.27
2018-11-02T06:50:06.836Z,8.18
2018-11-02T06:51:06.969Z,8.16
2018-11-02T06:52:07.078Z,8.15
2018-11-02T06:53:07.353Z,8.15
2018-11-02T06:54:06.815Z,8.2
2018-11-02T06:55:07.069Z,8.18
2018-11-02T06:56:07.094Z,8.18
2018-11-02T06:57:07.070Z,8.05
2018-11-02T06:58:07.051Z,8.16
2018-11-02T06:59:07.664Z,8.1
2018-11-02T07:00:08.878Z,8.01
2018-11-02T07:01:07.294Z,7.98
2018-11-02T07:02:07.009Z,8.1
2018-11-02T07:03:07.038Z,8.09
2018-11-02T07:04:07.309Z,8.05
2018-11-02T07:05:07.271Z,8.09
2018-11-02T07:06:07.028Z,8.09
2018-11-02T07:07:07.062Z,8.09
2018-11-02T07:08:06.837Z,8.06
2018-11-02T07:09:06.976Z,8.06
2018-11-02T07:10:07.422Z,7.97
2018-11-02T07:11:07.220Z,7.98
2018-11-02T07:12:07.232Z,7.98
2018-11-02T07:13:06.690Z,7.98
2018-11-02T07:14:07.235Z,8.01
2018-11-02T07:15:06.940Z,8.08
2018-11-02T07:16:06.933Z,8.23
2018-11-02T07:17:06.931Z,8.33
2018-11-02T07:18:06.657Z,8.33
2018-11-02T07:19:06.903Z,8.41
2018-11-02T07:20:07.147Z,8.42
2018-11-02T07:21:07.789Z,8.49
2018-11-02T07:22:07.143Z,8.56
2018-11-02T07:23:06.632Z,8.66
2018-11-02T07:24:07.148Z,8.67
2018-11-02T07:25:06.675Z,8.64
2018-11-02T07:26:06.867Z,8.7
2018-11-02T07:27:06.856Z,8.71
2018-11-02T07:28:06.595Z,8.81
2018-11-02T07:29:07.111Z,8.82
2018-11-02T07:30:06.841Z,8.87
2018-11-02T07:31:06.999Z,8.91
2018-11-02T07:32:06.825Z,8.91
2018-11-02T07:33:07.100Z,8.97
2018-11-02T07:34:07.102Z,9.04
2018-11-02T07:35:07.107Z,9.11
2018-11-02T07:36:07.077Z,9.13
2018-11-02T07:37:06.796Z,9.19
2018-11-02T07:38:07.051Z,9.18
2018-11-02T07:39:07.003Z,9.26
2018-11-02T07:40:07.062Z,9.29
2018-11-02T07:41:07.089Z,9.37
2018-11-02T07:42:07.134Z,9.41
2018-11-02T07:43:06.804Z,9.44
2018-11-02T07:44:06.792Z,9.55
2018-11-02T07:45:06.774Z,9.66
2018-11-02T07:46:07.028Z,9.68
2018-11-02T07:47:06.798Z,9.77
2018-11-02T07:48:06.742Z,9.86
2018-11-02T07:49:06.746Z,9.91
2018-11-02T07:50:07.026Z,9.99
2018-11-02T07:51:06.995Z,10.15
2018-11-02T07:52:06.945Z,10.15
2018-11-02T07:53:07.096Z,10.19
2018-11-02T07:54:06.963Z,10.22
2018-11-02T07:55:06.441Z,10.25
2018-11-02T07:56:06.984Z,10.17
2018-11-02T07:57:06.697Z,10.23
2018-11-02T07:58:06.701Z,10.12
2018-11-02T07:59:06.959Z,10.34
2018-11-02T08:00:06.712Z,10.26
2018-11-02T08:01:06.956Z,10.4
2018-11-02T08:02:06.970Z,10.4
2018-11-02T08:03:07.039Z,10.53
2018-11-02T08:04:08.042Z,10.57
2018-11-02T08:05:06.688Z,10.54
2018-11-02T08:06:06.687Z,10.68
2018-11-02T08:07:06.394Z,10.67
2018-11-02T08:08:06.910Z,10.76
2018-11-02T08:09:06.641Z,10.86
2018-11-02T08:10:06.910Z,10.81
2018-11-02T08:11:06.889Z,10.93
2018-11-02T08:12:06.373Z,10.96
2018-11-02T08:13:07.177Z,10.97
2018-11-02T08:14:06.624Z,10.92
2018-11-02T08:15:06.623Z,11.02
2018-11-02T08:16:06.612Z,10.99
2018-11-02T08:17:06.344Z,10.93
2018-11-02T08:18:06.867Z,10.9
2018-11-02T08:19:07.261Z,10.94
2018-11-02T08:20:06.609Z,10.93
2018-11-02T08:21:06.609Z,10.89
2018-11-02T08:22:06.869Z,10.97
2018-11-02T08:23:06.635Z,10.97
2018-11-02T08:24:06.856Z,11.04
2018-11-02T08:25:06.878Z,11.17
2018-11-02T08:26:06.320Z,11.12
2018-11-02T08:27:06.843Z,11.33
2018-11-02T08:28:06.587Z,11.29
2018-11-02T08:29:06.814Z,11.4
2018-11-02T08:30:06.319Z,11.51
2018-11-02T08:31:06.569Z,11.63
2018-11-02T08:32:06.879Z,11.75
2018-11-02T08:33:06.818Z,11.86
2018-11-02T08:34:06.583Z,11.9
2018-11-02T08:35:06.581Z,11.9
2018-11-02T08:36:06.297Z,11.91
2018-11-02T08:37:06.291Z,11.97
2018-11-02T08:38:06.558Z,12.02
2018-11-02T08:39:06.571Z,12
2018-11-02T08:40:06.539Z,12
2018-11-02T08:41:06.549Z,12.04
2018-11-02T08:42:06.270Z,12.03
2018-11-02T08:43:06.276Z,12
2018-11-02T08:44:06.529Z,12.03
2018-11-02T08:45:06.794Z,11.86
2018-11-02T08:46:06.773Z,11.69
2018-11-02T08:47:06.774Z,11.78
2018-11-02T08:48:06.525Z,11.73
2018-11-02T08:49:06.252Z,11.68
2018-11-02T08:50:06.260Z,11.55
2018-11-02T08:51:06.527Z,11.6
2018-11-02T08:52:06.857Z,11.52
2018-11-02T08:53:06.508Z,11.57
2018-11-02T08:54:06.239Z,11.55
2018-11-02T08:55:06.774Z,11.51
2018-11-02T08:56:06.493Z,11.5
2018-11-02T08:57:06.740Z,11.6
2018-11-02T08:58:06.904Z,11.62
2018-11-02T08:59:07.121Z,11.59
2018-11-02T09:00:06.600Z,11.6
2018-11-02T09:01:06.235Z,11.72
2018-11-02T09:02:06.488Z,11.78
2018-11-02T09:03:06.720Z,11.75
2018-11-02T09:04:06.471Z,11.83
2018-11-02T09:05:07.102Z,11.8
2018-11-02T09:06:06.466Z,11.81
2018-11-02T09:07:06.464Z,11.83
2018-11-02T09:08:06.205Z,11.78
2018-11-02T09:09:06.206Z,11.86
2018-11-02T09:10:06.459Z,11.83
2018-11-02T09:11:06.454Z,11.8
2018-11-02T09:12:06.515Z,11.73
2018-11-02T09:13:06.450Z,11.77
2018-11-02T09:14:06.484Z,11.73
2018-11-02T09:15:06.437Z,11.54
2018-11-02T09:16:06.181Z,11.63
2018-11-02T09:17:06.434Z,11.73
2018-11-02T09:18:06.407Z,11.73
2018-11-02T09:19:06.498Z,11.84
2018-11-02T09:20:06.416Z,11.87
2018-11-02T09:21:06.417Z,11.97
2018-11-02T09:22:06.441Z,12
2018-11-02T09:23:06.425Z,12.09
2018-11-02T09:24:06.706Z,12.18
2018-11-02T09:25:06.430Z,12.24
2018-11-02T09:26:06.209Z,12.29
2018-11-02T09:27:06.436Z,12.29
2018-11-02T09:28:06.862Z,12.37
2018-11-02T09:29:06.420Z,12.5
2018-11-02T09:30:06.390Z,12.45
2018-11-02T09:31:06.132Z,12.42
2018-11-02T09:32:06.146Z,12.21
2018-11-02T09:33:06.420Z,12.37
2018-11-02T09:34:06.400Z,12.36
2018-11-02T09:35:06.125Z,12.35
2018-11-02T09:36:06.682Z,12.36
2018-11-02T09:37:06.368Z,12.24
2018-11-02T09:38:06.670Z,12.31
2018-11-02T09:39:06.367Z,12.29
2018-11-02T09:40:06.652Z,12.29
2018-11-02T09:41:06.091Z,12.36
2018-11-02T09:42:06.618Z,12.15
2018-11-02T09:43:06.366Z,12.2
2018-11-02T09:44:06.628Z,12.27
2018-11-02T09:45:06.096Z,12.29
2018-11-02T09:46:06.363Z,12.39
2018-11-02T09:47:06.361Z,12.27
2018-11-02T09:48:06.661Z,12.31
2018-11-02T09:49:06.083Z,12.36
2018-11-02T09:50:06.104Z,12.25
2018-11-02T09:51:06.353Z,12.22
2018-11-02T09:52:06.914Z,12.2
2018-11-02T09:53:06.365Z,12.15
2018-11-02T09:54:06.057Z,12.13
2018-11-02T09:55:06.340Z,12.29
2018-11-02T09:56:06.061Z,12.22
2018-11-02T09:57:06.070Z,12.28
2018-11-02T09:58:06.307Z,12.37
2018-11-02T09:59:06.041Z,12.36
2018-11-02T10:00:06.041Z,12.37
2018-11-02T10:01:07.471Z,12.35
2018-11-02T10:02:07.070Z,12.5
2018-11-02T10:03:06.572Z,12.49
2018-11-02T10:04:06.560Z,12.49
2018-11-02T10:05:06.062Z,12.61
2018-11-02T10:06:06.329Z,12.67
2018-11-02T10:07:06.551Z,12.67
2018-11-02T10:08:06.037Z,12.78
2018-11-02T10:09:06.750Z,12.72
2018-11-02T10:10:06.565Z,12.8
2018-11-02T10:11:06.552Z,12.7
2018-11-02T10:12:06.501Z,12.73
2018-11-02T10:13:06.529Z,12.76
2018-11-02T10:14:06.542Z,12.76
2018-11-02T10:15:06.276Z,12.86
2018-11-02T10:16:06.012Z,12.91
2018-11-02T10:17:06.288Z,12.97
2018-11-02T10:18:06.285Z,13.08
2018-11-02T10:19:06.262Z,13.03
2018-11-02T10:20:06.002Z,13.13
2018-11-02T10:21:06.522Z,13.28
2018-11-02T10:22:06.261Z,13.19
2018-11-02T10:23:06.262Z,13.19
2018-11-02T10:24:06.506Z,13.19
2018-11-02T10:25:06.565Z,13.19
2018-11-02T10:26:06.241Z,13.3
2018-11-02T10:27:06.284Z,13.35
2018-11-02T10:28:06.791Z,13.35
2018-11-02T10:29:06.262Z,13.44
2018-11-02T10:30:06.506Z,13.59
2018-11-02T10:31:05.960Z,13.52
2018-11-02T10:32:05.962Z,13.59
2018-11-02T10:33:06.493Z,13.68
2018-11-02T10:34:05.969Z,13.7
2018-11-02T10:35:06.762Z,13.71
2018-11-02T10:36:06.843Z,13.75
2018-11-02T10:37:05.968Z,13.74
2018-11-02T10:38:06.228Z,13.62
2018-11-02T10:39:05.970Z,13.67
2018-11-02T10:40:05.960Z,13.74
2018-11-02T10:41:05.960Z,13.81
2018-11-02T10:42:06.702Z,13.79
2018-11-02T10:43:06.214Z,13.92
2018-11-02T10:44:06.248Z,13.87
2018-11-02T10:45:06.512Z,13.86
2018-11-02T10:46:05.960Z,13.87
2018-11-02T10:47:06.488Z,13.89
2018-11-02T10:48:06.521Z,13.81
2018-11-02T10:49:06.528Z,13.79
2018-11-02T10:50:06.203Z,13.75
2018-11-02T10:51:06.350Z,13.85
2018-11-02T10:52:06.195Z,13.78
2018-11-02T10:53:06.197Z,13.92
2018-11-02T10:54:06.193Z,14
2018-11-02T10:55:06.485Z,14.04
2018-11-02T10:56:05.934Z,14.17
2018-11-02T10:57:06.225Z,14.12
2018-11-02T10:58:06.478Z,14.1
2018-11-02T10:59:06.188Z,14.11
2018-11-02T11:00:06.182Z,14.05
2018-11-02T11:01:06.654Z,14.08
2018-11-02T11:02:06.198Z,14.1
2018-11-02T11:03:06.192Z,13.92
2018-11-02T11:04:06.469Z,13.93
2018-11-02T11:05:06.179Z,13.9
2018-11-02T11:06:05.909Z,13.96
2018-11-02T11:07:06.196Z,13.95
2018-11-02T11:08:06.451Z,13.87
2018-11-02T11:09:06.462Z,13.78
2018-11-02T11:10:06.199Z,13.93
2018-11-02T11:11:05.923Z,13.92
2018-11-02T11:12:06.569Z,13.83
2018-11-02T11:13:07.496Z,13.77
2018-11-02T11:14:05.929Z,13.83
2018-11-02T11:15:06.455Z,13.83
2018-11-02T11:16:05.920Z,13.81
2018-11-02T11:17:06.460Z,13.85
2018-11-02T11:18:06.435Z,13.99
2018-11-02T11:19:06.161Z,13.92
2018-11-02T11:20:06.164Z,13.99
2018-11-02T11:21:06.785Z,14.12
2018-11-02T11:22:06.172Z,14.11
2018-11-02T11:23:06.154Z,14.22
2018-11-02T11:24:06.179Z,14.3
2018-11-02T11:25:06.167Z,14.3
2018-11-02T11:26:05.898Z,14.35
2018-11-02T11:27:06.442Z,14.32
2018-11-02T11:28:06.153Z,14.37
2018-11-02T11:29:06.421Z,14.51
2018-11-02T11:30:06.158Z,14.53
2018-11-02T11:31:06.572Z,14.3
2018-11-02T11:32:06.420Z,14.32
2018-11-02T11:33:05.901Z,14.2
2018-11-02T11:34:06.194Z,14.1
2018-11-02T11:35:05.873Z,14.11
2018-11-02T11:36:06.181Z,14.1
2018-11-02T11:37:06.149Z,14.07
2018-11-02T11:38:06.142Z,14.23
2018-11-02T11:39:06.142Z,14.23
2018-11-02T11:40:05.927Z,14.23
2018-11-02T11:41:06.851Z,14.22
2018-11-02T11:42:06.428Z,14.14
2018-11-02T11:43:05.899Z,14.23
2018-11-02T11:44:06.129Z,14.2
2018-11-02T11:45:06.187Z,14.12
2018-11-02T11:46:06.486Z,14.14
2018-11-02T11:47:06.161Z,14.11
2018-11-02T11:48:06.129Z,14.1
2018-11-02T11:49:06.654Z,14.17
2018-11-02T11:50:05.859Z,14.08
2018-11-02T11:51:06.849Z,14.07
2018-11-02T11:52:06.149Z,14.07
2018-11-02T11:53:06.151Z,14.2
2018-11-02T11:54:05.938Z,14.22
2018-11-02T11:55:06.390Z,14.14
2018-11-02T11:56:06.129Z,14.15
2018-11-02T11:57:05.847Z,14.18
2018-11-02T11:58:06.128Z,14.05
2018-11-02T11:59:06.405Z,13.96
2018-11-02T12:00:06.121Z,14
2018-11-02T12:01:06.439Z,13.96
2018-11-02T12:02:06.298Z,13.93
2018-11-02T12:03:06.373Z,13.95
2018-11-02T12:04:06.249Z,13.93
2018-11-02T12:05:06.762Z,13.97
2018-11-02T12:06:06.152Z,14
2018-11-02T12:07:06.371Z,13.95
2018-11-02T12:08:05.835Z,13.89
2018-11-02T12:09:06.520Z,13.83
2018-11-02T12:10:06.409Z,13.86
2018-11-02T12:11:06.827Z,13.79
2018-11-02T12:12:06.382Z,13.81
2018-11-02T12:13:06.094Z,13.74
2018-11-02T12:14:06.108Z,13.7
2018-11-02T12:15:06.101Z,13.72
2018-11-02T12:16:06.379Z,13.56
2018-11-02T12:17:06.086Z,13.5
2018-11-02T12:18:06.084Z,13.54
2018-11-02T12:19:06.102Z,13.53
2018-11-02T12:20:05.817Z,13.57
2018-11-02T12:21:06.232Z,13.6
2018-11-02T12:22:06.675Z,13.62
2018-11-02T12:23:05.841Z,13.56
2018-11-02T12:24:06.358Z,13.59
2018-11-02T12:25:06.094Z,13.59
2018-11-02T12:26:06.350Z,13.52
2018-11-02T12:27:05.851Z,13.44
2018-11-02T12:28:06.579Z,13.42
2018-11-02T12:29:06.079Z,13.41
2018-11-02T12:30:06.066Z,13.39
2018-11-02T12:31:06.342Z,13.42
2018-11-02T12:32:06.327Z,13.41
2018-11-02T12:33:06.064Z,13.41
2018-11-02T12:34:05.796Z,13.42
2018-11-02T12:35:06.053Z,13.46
2018-11-02T12:36:06.040Z,13.41
2018-11-02T12:37:06.257Z,13.46
2018-11-02T12:38:06.331Z,13.5
2018-11-02T12:39:06.060Z,13.46
2018-11-02T12:40:06.070Z,13.38
2018-11-02T12:41:05.785Z,13.44
2018-11-02T12:42:06.553Z,13.39
2018-11-02T12:43:06.050Z,13.49
2018-11-02T12:44:06.627Z,13.41
2018-11-02T12:45:06.041Z,13.49
2018-11-02T12:46:05.761Z,13.42
2018-11-02T12:47:06.030Z,13.37
2018-11-02T12:48:06.805Z,13.47
2018-11-02T12:49:07.419Z,13.46
2018-11-02T12:50:06.004Z,13.5
2018-11-02T12:51:06.024Z,13.5
2018-11-02T12:52:06.276Z,13.47
2018-11-02T12:53:06.304Z,13.5
2018-11-02T12:54:05.774Z,13.47
2018-11-02T12:55:06.023Z,13.52
2018-11-02T12:56:06.270Z,13.47
2018-11-02T12:57:06.670Z,13.5
2018-11-02T12:58:06.284Z,13.47
2018-11-02T12:59:06.043Z,13.46
2018-11-02T13:00:05.986Z,13.47
2018-11-02T13:01:06.293Z,13.47
2018-11-02T13:02:06.691Z,13.46
2018-11-02T13:03:06.263Z,13.47
2018-11-02T13:04:06.263Z,13.5
2018-11-02T13:05:05.773Z,13.41
2018-11-02T13:06:06.258Z,13.38
2018-11-02T13:07:06.324Z,13.41
2018-11-02T13:08:06.325Z,13.42
2018-11-02T13:09:05.986Z,13.46
2018-11-02T13:10:06.248Z,13.39
2018-11-02T13:11:05.994Z,13.44